sensor_id;sensor_type;location;lat;lon;timestamp;temperature;humidity
66312;HTU21D;53114;51.138;6.008;2022-08-18T00:04:29;18.95;118.99
66312;HTU21D;53114;51.138;6.008;2022-08-18T00:06:55;19.08;118.99
66312;HTU21D;53114;51.138;6.008;2022-08-18T00:09:21;19.23;118.99
66312;HTU21D;53114;51.138;6.008;2022-08-18T00:11:47;19.33;118.99
66312;HTU21D;53114;51.138;6.008;2022-08-18T00:14:18;19.45;118.99
66312;HTU21D;53114;51.138;6.008;2022-08-18T00:16:44;19.55;118.99
66312;HTU21D;53114;51.138;6.008;2022-08-18T00:19:10;19.61;118.99
66312;HTU21D;53114;51.138;6.008;2022-08-18T00:21:36;19.66;118.99
66312;HTU21D;53114;51.138;6.008;2022-08-18T00:24:03;19.69;118.99
66312;HTU21D;53114;51.138;6.008;2022-08-18T00:26:29;19.71;118.99
66312;HTU21D;53114;51.138;6.008;2022-08-18T00:28:55;19.76;118.99
66312;HTU21D;53114;51.138;6.008;2022-08-18T00:31:21;19.82;118.99
66312;HTU21D;53114;51.138;6.008;2022-08-18T00:33:47;19.88;118.99
66312;HTU21D;53114;51.138;6.008;2022-08-18T00:36:13;19.94;118.99
66312;HTU21D;53114;51.138;6.008;2022-08-18T00:38:39;20.00;118.99
66312;HTU21D;53114;51.138;6.008;2022-08-18T00:41:06;19.95;118.99
66312;HTU21D;53114;51.138;6.008;2022-08-18T00:43:42;19.91;118.99
66312;HTU21D;53114;51.138;6.008;2022-08-18T00:46:13;19.95;118.99
66312;HTU21D;53114;51.138;6.008;2022-08-18T00:48:41;19.99;118.99
66312;HTU21D;53114;51.138;6.008;2022-08-18T00:51:11;19.99;118.99
66312;HTU21D;53114;51.138;6.008;2022-08-18T00:56:32;19.94;118.99
66312;HTU21D;53114;51.138;6.008;2022-08-18T00:59:28;20.00;118.99
66312;HTU21D;53114;51.138;6.008;2022-08-18T01:01:57;20.07;118.99
66312;HTU21D;53114;51.138;6.008;2022-08-18T01:10:00;20.16;118.99
66312;HTU21D;53114;51.138;6.008;2022-08-18T01:12:30;20.16;118.99
66312;HTU21D;53114;51.138;6.008;2022-08-18T01:14:57;20.09;118.99
66312;HTU21D;53114;51.138;6.008;2022-08-18T01:17:24;20.02;118.99
66312;HTU21D;53114;51.138;6.008;2022-08-18T01:20:17;19.92;118.99
66312;HTU21D;53114;51.138;6.008;2022-08-18T01:23:13;19.84;118.99
66312;HTU21D;53114;51.138;6.008;2022-08-18T01:25:40;19.85;118.99
66312;HTU21D;53114;51.138;6.008;2022-08-18T01:28:33;19.89;118.99
66312;HTU21D;53114;51.138;6.008;2022-08-18T01:31:02;19.97;118.99
66312;HTU21D;53114;51.138;6.008;2022-08-18T01:33:32;20.07;118.99
66312;HTU21D;53114;51.138;6.008;2022-08-18T01:38:32;20.24;118.99
66312;HTU21D;53114;51.138;6.008;2022-08-18T01:40:58;20.26;118.99
66312;HTU21D;53114;51.138;6.008;2022-08-18T01:43:25;20.29;118.99
66312;HTU21D;53114;51.138;6.008;2022-08-18T01:45:51;20.30;118.99
66312;HTU21D;53114;51.138;6.008;2022-08-18T01:48:17;20.32;118.99
66312;HTU21D;53114;51.138;6.008;2022-08-18T01:50:43;20.29;118.99
66312;HTU21D;53114;51.138;6.008;2022-08-18T01:53:10;20.26;118.99
66312;HTU21D;53114;51.138;6.008;2022-08-18T01:55:39;20.25;118.99
66312;HTU21D;53114;51.138;6.008;2022-08-18T01:58:06;20.27;118.99
66312;HTU21D;53114;51.138;6.008;2022-08-18T02:00:33;20.29;118.99
66312;HTU21D;53114;51.138;6.008;2022-08-18T02:03:05;20.30;118.99
66312;HTU21D;53114;51.138;6.008;2022-08-18T02:05:40;20.30;118.99
66312;HTU21D;53114;51.138;6.008;2022-08-18T02:08:07;20.28;118.99
66312;HTU21D;53114;51.138;6.008;2022-08-18T02:10:33;20.28;118.99
66312;HTU21D;53114;51.138;6.008;2022-08-18T02:12:59;20.26;118.99
66312;HTU21D;53114;51.138;6.008;2022-08-18T02:15:25;20.25;118.99
66312;HTU21D;53114;51.138;6.008;2022-08-18T02:17:52;20.16;118.99
66312;HTU21D;53114;51.138;6.008;2022-08-18T02:20:19;20.07;118.99
66312;HTU21D;53114;51.138;6.008;2022-08-18T02:22:46;20.03;118.99
66312;HTU21D;53114;51.138;6.008;2022-08-18T02:25:14;20.07;118.99
66312;HTU21D;53114;51.138;6.008;2022-08-18T02:27:42;20.07;118.99
66312;HTU21D;53114;51.138;6.008;2022-08-18T02:30:12;20.13;118.99
66312;HTU21D;53114;51.138;6.008;2022-08-18T02:32:39;20.17;118.99
66312;HTU21D;53114;51.138;6.008;2022-08-18T02:35:08;20.19;118.99
66312;HTU21D;53114;51.138;6.008;2022-08-18T02:37:36;20.21;118.99
66312;HTU21D;53114;51.138;6.008;2022-08-18T02:40:03;20.21;118.99
66312;HTU21D;53114;51.138;6.008;2022-08-18T02:42:29;20.18;118.99
66312;HTU21D;53114;51.138;6.008;2022-08-18T02:44:56;20.17;118.99
66312;HTU21D;53114;51.138;6.008;2022-08-18T02:47:22;20.18;118.99
66312;HTU21D;53114;51.138;6.008;2022-08-18T02:49:48;20.18;118.99
66312;HTU21D;53114;51.138;6.008;2022-08-18T02:52:14;20.20;118.99
66312;HTU21D;53114;51.138;6.008;2022-08-18T02:54:40;20.22;118.99
66312;HTU21D;53114;51.138;6.008;2022-08-18T02:57:10;20.21;118.99
66312;HTU21D;53114;51.138;6.008;2022-08-18T02:59:39;20.18;118.99
66312;HTU21D;53114;51.138;6.008;2022-08-18T03:02:07;20.17;118.99
66312;HTU21D;53114;51.138;6.008;2022-08-18T03:04:33;20.14;118.99
66312;HTU21D;53114;51.138;6.008;2022-08-18T03:07:02;20.10;118.99
66312;HTU21D;53114;51.138;6.008;2022-08-18T03:09:30;20.03;118.99
66312;HTU21D;53114;51.138;6.008;2022-08-18T03:11:57;20.00;118.99
66312;HTU21D;53114;51.138;6.008;2022-08-18T03:14:23;19.99;118.99
66312;HTU21D;53114;51.138;6.008;2022-08-18T03:16:50;19.95;118.99
66312;HTU21D;53114;51.138;6.008;2022-08-18T03:19:17;19.92;118.99
66312;HTU21D;53114;51.138;6.008;2022-08-18T03:21:45;19.91;118.99
66312;HTU21D;53114;51.138;6.008;2022-08-18T03:24:12;19.88;118.99
66312;HTU21D;53114;51.138;6.008;2022-08-18T03:26:43;19.87;118.99
66312;HTU21D;53114;51.138;6.008;2022-08-18T03:29:10;19.87;118.99
66312;HTU21D;53114;51.138;6.008;2022-08-18T03:31:37;19.90;118.99
66312;HTU21D;53114;51.138;6.008;2022-08-18T03:34:06;19.96;118.99
66312;HTU21D;53114;51.138;6.008;2022-08-18T03:36:34;19.99;118.99
66312;HTU21D;53114;51.138;6.008;2022-08-18T03:39:04;20.01;118.99
66312;HTU21D;53114;51.138;6.008;2022-08-18T03:41:31;20.01;118.99
66312;HTU21D;53114;51.138;6.008;2022-08-18T03:43:57;20.03;118.99
66312;HTU21D;53114;51.138;6.008;2022-08-18T03:46:23;20.06;118.99
66312;HTU21D;53114;51.138;6.008;2022-08-18T03:48:50;20.09;118.99
66312;HTU21D;53114;51.138;6.008;2022-08-18T03:51:29;20.13;118.99
66312;HTU21D;53114;51.138;6.008;2022-08-18T03:53:58;20.13;118.99
66312;HTU21D;53114;51.138;6.008;2022-08-18T03:56:28;20.10;118.99
66312;HTU21D;53114;51.138;6.008;2022-08-18T03:58:59;20.07;118.99
66312;HTU21D;53114;51.138;6.008;2022-08-18T04:01:30;20.09;118.99
66312;HTU21D;53114;51.138;6.008;2022-08-18T04:04:00;20.12;118.99
66312;HTU21D;53114;51.138;6.008;2022-08-18T04:06:33;20.13;118.99
66312;HTU21D;53114;51.138;6.008;2022-08-18T04:09:01;20.16;118.99
66312;HTU21D;53114;51.138;6.008;2022-08-18T04:11:32;20.21;118.99
66312;HTU21D;53114;51.138;6.008;2022-08-18T04:13:58;20.22;118.99
66312;HTU21D;53114;51.138;6.008;2022-08-18T04:16:26;20.26;118.99
66312;HTU21D;53114;51.138;6.008;2022-08-18T04:18:53;20.27;118.99
66312;HTU21D;53114;51.138;6.008;2022-08-18T04:21:22;20.31;118.99
66312;HTU21D;53114;51.138;6.008;2022-08-18T04:23:48;20.28;118.99
66312;HTU21D;53114;51.138;6.008;2022-08-18T04:26:14;20.21;118.99
66312;HTU21D;53114;51.138;6.008;2022-08-18T04:28:43;20.14;118.99
66312;HTU21D;53114;51.138;6.008;2022-08-18T04:31:12;20.17;118.99
66312;HTU21D;53114;51.138;6.008;2022-08-18T04:33:40;20.17;118.99
66312;HTU21D;53114;51.138;6.008;2022-08-18T04:36:09;20.20;118.99
66312;HTU21D;53114;51.138;6.008;2022-08-18T04:38:36;20.25;118.99
66312;HTU21D;53114;51.138;6.008;2022-08-18T04:41:03;20.30;118.99
66312;HTU21D;53114;51.138;6.008;2022-08-18T04:43:29;20.36;118.99
66312;HTU21D;53114;51.138;6.008;2022-08-18T04:45:56;20.40;118.99
66312;HTU21D;53114;51.138;6.008;2022-08-18T04:48:38;20.43;118.99
66312;HTU21D;53114;51.138;6.008;2022-08-18T04:53:31;20.46;118.99
66312;HTU21D;53114;51.138;6.008;2022-08-18T04:58:53;20.35;118.99
66312;HTU21D;53114;51.138;6.008;2022-08-18T05:01:22;20.33;118.99
66312;HTU21D;53114;51.138;6.008;2022-08-18T05:03:51;20.31;118.99
66312;HTU21D;53114;51.138;6.008;2022-08-18T05:06:19;20.31;118.99
66312;HTU21D;53114;51.138;6.008;2022-08-18T05:08:45;20.29;118.99
66312;HTU21D;53114;51.138;6.008;2022-08-18T05:11:14;20.26;118.99
66312;HTU21D;53114;51.138;6.008;2022-08-18T05:13:41;20.22;118.99
66312;HTU21D;53114;51.138;6.008;2022-08-18T05:16:08;20.19;118.99
66312;HTU21D;53114;51.138;6.008;2022-08-18T05:18:34;20.19;118.99
66312;HTU21D;53114;51.138;6.008;2022-08-18T05:21:06;20.17;118.99
66312;HTU21D;53114;51.138;6.008;2022-08-18T05:23:36;20.19;118.99
66312;HTU21D;53114;51.138;6.008;2022-08-18T05:26:02;20.22;118.99
66312;HTU21D;53114;51.138;6.008;2022-08-18T05:28:30;20.25;118.99
66312;HTU21D;53114;51.138;6.008;2022-08-18T05:30:56;20.29;118.99
66312;HTU21D;53114;51.138;6.008;2022-08-18T05:33:23;20.34;118.99
66312;HTU21D;53114;51.138;6.008;2022-08-18T05:35:59;20.37;118.99
66312;HTU21D;53114;51.138;6.008;2022-08-18T05:41:05;20.43;118.99
66312;HTU21D;53114;51.138;6.008;2022-08-18T05:43:33;20.48;118.99
66312;HTU21D;53114;51.138;6.008;2022-08-18T05:46:04;20.51;118.99
66312;HTU21D;53114;51.138;6.008;2022-08-18T05:48:31;20.51;118.99
66312;HTU21D;53114;51.138;6.008;2022-08-18T05:51:07;20.53;118.99
66312;HTU21D;53114;51.138;6.008;2022-08-18T05:53:37;20.51;118.99
66312;HTU21D;53114;51.138;6.008;2022-08-18T05:56:28;20.48;118.99
66312;HTU21D;53114;51.138;6.008;2022-08-18T05:59:20;20.51;118.99
66312;HTU21D;53114;51.138;6.008;2022-08-18T06:01:56;20.56;118.99
66312;HTU21D;53114;51.138;6.008;2022-08-18T06:04:40;20.60;118.99
66312;HTU21D;53114;51.138;6.008;2022-08-18T06:07:13;20.65;118.99
66312;HTU21D;53114;51.138;6.008;2022-08-18T06:09:52;20.74;118.99
66312;HTU21D;53114;51.138;6.008;2022-08-18T06:12:30;20.78;118.99
66312;HTU21D;53114;51.138;6.008;2022-08-18T06:15:14;20.84;118.99
66312;HTU21D;53114;51.138;6.008;2022-08-18T06:18:00;20.88;118.99
66312;HTU21D;53114;51.138;6.008;2022-08-18T06:20:42;20.94;118.99
66312;HTU21D;53114;51.138;6.008;2022-08-18T06:23:23;21.02;118.99
66312;HTU21D;53114;51.138;6.008;2022-08-18T06:26:01;21.08;118.99
66312;HTU21D;53114;51.138;6.008;2022-08-18T06:31:41;21.23;118.99
66312;HTU21D;53114;51.138;6.008;2022-08-18T06:37:02;21.25;118.99
66312;HTU21D;53114;51.138;6.008;2022-08-18T06:39:51;21.27;118.99
66312;HTU21D;53114;51.138;6.008;2022-08-18T06:42:20;21.34;118.99
66312;HTU21D;53114;51.138;6.008;2022-08-18T06:45:04;21.38;118.99
66312;HTU21D;53114;51.138;6.008;2022-08-18T06:50:26;21.50;118.99
66312;HTU21D;53114;51.138;6.008;2022-08-18T06:53:01;21.54;118.99
66312;HTU21D;53114;51.138;6.008;2022-08-18T06:58:00;21.61;118.99
66312;HTU21D;53114;51.138;6.008;2022-08-18T07:00:29;21.64;118.99
66312;HTU21D;53114;51.138;6.008;2022-08-18T07:03:03;21.72;118.99
66312;HTU21D;53114;51.138;6.008;2022-08-18T07:05:33;21.76;118.99
66312;HTU21D;53114;51.138;6.008;2022-08-18T07:10:50;21.83;118.99
66312;HTU21D;53114;51.138;6.008;2022-08-18T07:13:27;21.87;118.99
66312;HTU21D;53114;51.138;6.008;2022-08-18T07:15:55;21.91;118.99
66312;HTU21D;53114;51.138;6.008;2022-08-18T07:18:39;22.02;118.99
66312;HTU21D;53114;51.138;6.008;2022-08-18T07:21:05;22.09;118.99
66312;HTU21D;53114;51.138;6.008;2022-08-18T07:23:36;22.19;118.99
66312;HTU21D;53114;51.138;6.008;2022-08-18T07:26:13;22.25;118.99
66312;HTU21D;53114;51.138;6.008;2022-08-18T07:28:46;22.34;118.99
66312;HTU21D;53114;51.138;6.008;2022-08-18T07:31:48;22.41;118.99
66312;HTU21D;53114;51.138;6.008;2022-08-18T07:34:40;22.50;118.99
66312;HTU21D;53114;51.138;6.008;2022-08-18T07:37:16;22.56;118.99
66312;HTU21D;53114;51.138;6.008;2022-08-18T07:45:32;22.60;118.99
66312;HTU21D;53114;51.138;6.008;2022-08-18T07:48:09;22.60;118.99
66312;HTU21D;53114;51.138;6.008;2022-08-18T07:53:54;22.71;118.99
66312;HTU21D;53114;51.138;6.008;2022-08-18T07:56:33;22.94;118.99
66312;HTU21D;53114;51.138;6.008;2022-08-18T08:04:19;23.39;116.55
66312;HTU21D;53114;51.138;6.008;2022-08-18T08:15:54;24.75;107.49
66312;HTU21D;53114;51.138;6.008;2022-08-18T08:21:08;24.42;107.33
66312;HTU21D;53114;51.138;6.008;2022-08-18T08:26:45;24.47;108.67
66312;HTU21D;53114;51.138;6.008;2022-08-18T08:31:51;25.18;103.87
66312;HTU21D;53114;51.138;6.008;2022-08-18T08:37:03;25.02;103.33
66312;HTU21D;53114;51.138;6.008;2022-08-18T08:39:45;24.92;105.88
66312;HTU21D;53114;51.138;6.008;2022-08-18T08:45:33;26.35;96.09
66312;HTU21D;53114;51.138;6.008;2022-08-18T08:50:40;27.70;88.07
66312;HTU21D;53114;51.138;6.008;2022-08-18T08:53:21;28.63;81.97
66312;HTU21D;53114;51.138;6.008;2022-08-18T08:55:55;29.37;77.15
66312;HTU21D;53114;51.138;6.008;2022-08-18T09:24:31;27.29;85.55
66312;HTU21D;53114;51.138;6.008;2022-08-18T09:29:57;26.68;88.54
66312;HTU21D;53114;51.138;6.008;2022-08-18T09:40:03;27.91;80.79
66312;HTU21D;53114;51.138;6.008;2022-08-18T09:43:10;28.92;75.69
66312;HTU21D;53114;51.138;6.008;2022-08-18T09:50:51;30.53;62.89
66312;HTU21D;53114;51.138;6.008;2022-08-18T09:53:51;29.67;66.61
66312;HTU21D;53114;51.138;6.008;2022-08-18T10:02:05;27.53;82.27
66312;HTU21D;53114;51.138;6.008;2022-08-18T10:04:36;27.31;83.16
66312;HTU21D;53114;51.138;6.008;2022-08-18T10:12:35;27.36;80.69
66312;HTU21D;53114;51.138;6.008;2022-08-18T10:34:40;27.86;76.63
66312;HTU21D;53114;51.138;6.008;2022-08-18T10:39:49;27.02;83.83
66312;HTU21D;53114;51.138;6.008;2022-08-18T10:42:38;26.72;86.93
66312;HTU21D;53114;51.138;6.008;2022-08-18T10:45:24;26.45;87.01
66312;HTU21D;53114;51.138;6.008;2022-08-18T10:50:41;26.23;90.64
66312;HTU21D;53114;51.138;6.008;2022-08-18T10:53:14;26.31;90.37
66312;HTU21D;53114;51.138;6.008;2022-08-18T10:56:00;26.22;90.34
66312;HTU21D;53114;51.138;6.008;2022-08-18T10:58:41;26.09;92.98
66312;HTU21D;53114;51.138;6.008;2022-08-18T11:06:26;26.13;92.26
66312;HTU21D;53114;51.138;6.008;2022-08-18T11:08:56;26.16;90.89
66312;HTU21D;53114;51.138;6.008;2022-08-18T11:11:34;26.10;91.02
66312;HTU21D;53114;51.138;6.008;2022-08-18T11:14:07;26.12;90.76
66312;HTU21D;53114;51.138;6.008;2022-08-18T11:19:19;26.31;90.73
66312;HTU21D;53114;51.138;6.008;2022-08-18T11:21:51;26.42;90.36
66312;HTU21D;53114;51.138;6.008;2022-08-18T11:24:27;26.55;89.78
66312;HTU21D;53114;51.138;6.008;2022-08-18T11:27:03;26.65;88.12
66312;HTU21D;53114;51.138;6.008;2022-08-18T11:32:10;26.61;87.38
66312;HTU21D;53114;51.138;6.008;2022-08-18T11:34:45;26.73;86.31
66312;HTU21D;53114;51.138;6.008;2022-08-18T11:39:55;27.29;82.47
66312;HTU21D;53114;51.138;6.008;2022-08-18T11:42:36;27.37;83.76
66312;HTU21D;53114;51.138;6.008;2022-08-18T11:45:19;27.39;85.43
66312;HTU21D;53114;51.138;6.008;2022-08-18T11:51:29;27.35;85.32
66312;HTU21D;53114;51.138;6.008;2022-08-18T11:59:46;26.92;86.07
66312;HTU21D;53114;51.138;6.008;2022-08-18T12:01:49;26.65;88.89
66312;HTU21D;53114;51.138;6.008;2022-08-18T12:04:30;26.51;91.65
66312;HTU21D;53114;51.138;6.008;2022-08-18T12:07:09;26.47;91.16
66312;HTU21D;53114;51.138;6.008;2022-08-18T12:10:08;26.41;90.33
66312;HTU21D;53114;51.138;6.008;2022-08-18T12:12:45;26.54;91.50
66312;HTU21D;53114;51.138;6.008;2022-08-18T12:17:40;26.86;88.07
66312;HTU21D;53114;51.138;6.008;2022-08-18T12:20:08;26.95;87.54
66312;HTU21D;53114;51.138;6.008;2022-08-18T12:22:35;26.82;85.22
66312;HTU21D;53114;51.138;6.008;2022-08-18T12:25:05;26.96;88.64
66312;HTU21D;53114;51.138;6.008;2022-08-18T12:27:32;27.17;87.38
66312;HTU21D;53114;51.138;6.008;2022-08-18T12:29:59;27.34;86.00
66312;HTU21D;53114;51.138;6.008;2022-08-18T12:32:28;27.57;85.83
66312;HTU21D;53114;51.138;6.008;2022-08-18T12:34:55;27.78;84.62
66312;HTU21D;53114;51.138;6.008;2022-08-18T12:37:26;27.97;82.23
66312;HTU21D;53114;51.138;6.008;2022-08-18T12:39:52;28.17;79.40
66312;HTU21D;53114;51.138;6.008;2022-08-18T12:42:19;28.28;76.82
66312;HTU21D;53114;51.138;6.008;2022-08-18T12:44:46;28.43;75.89
66312;HTU21D;53114;51.138;6.008;2022-08-18T12:47:15;28.49;77.92
66312;HTU21D;53114;51.138;6.008;2022-08-18T12:49:42;28.43;76.31
66312;HTU21D;53114;51.138;6.008;2022-08-18T12:52:09;28.34;75.15
66312;HTU21D;53114;51.138;6.008;2022-08-18T12:54:35;28.18;74.90
66312;HTU21D;53114;51.138;6.008;2022-08-18T12:57:05;28.05;75.57
66312;HTU21D;53114;51.138;6.008;2022-08-18T12:59:33;27.98;75.42
66312;HTU21D;53114;51.138;6.008;2022-08-18T13:02:00;27.83;76.51
66312;HTU21D;53114;51.138;6.008;2022-08-18T13:04:27;27.81;78.60
66312;HTU21D;53114;51.138;6.008;2022-08-18T13:06:55;27.88;79.59
66312;HTU21D;53114;51.138;6.008;2022-08-18T13:09:22;27.94;78.00
66312;HTU21D;53114;51.138;6.008;2022-08-18T13:11:48;28.00;80.58
66312;HTU21D;53114;51.138;6.008;2022-08-18T13:14:15;28.13;78.86
66312;HTU21D;53114;51.138;6.008;2022-08-18T13:16:43;28.16;76.70
66312;HTU21D;53114;51.138;6.008;2022-08-18T13:19:12;28.04;77.14
66312;HTU21D;53114;51.138;6.008;2022-08-18T13:21:39;27.93;78.72
66312;HTU21D;53114;51.138;6.008;2022-08-18T13:24:06;27.69;80.51
66312;HTU21D;53114;51.138;6.008;2022-08-18T13:26:44;27.41;80.14
66312;HTU21D;53114;51.138;6.008;2022-08-18T13:29:10;27.28;80.57
66312;HTU21D;53114;51.138;6.008;2022-08-18T13:31:37;27.31;80.85
66312;HTU21D;53114;51.138;6.008;2022-08-18T13:34:04;27.55;79.98
66312;HTU21D;53114;51.138;6.008;2022-08-18T13:36:34;27.86;78.24
66312;HTU21D;53114;51.138;6.008;2022-08-18T13:39:27;28.12;75.11
66312;HTU21D;53114;51.138;6.008;2022-08-18T13:41:53;28.11;75.06
66312;HTU21D;53114;51.138;6.008;2022-08-18T13:44:21;28.00;76.29
66312;HTU21D;53114;51.138;6.008;2022-08-18T13:46:49;27.91;75.79
66312;HTU21D;53114;51.138;6.008;2022-08-18T13:49:21;27.88;75.18
66312;HTU21D;53114;51.138;6.008;2022-08-18T13:51:52;27.80;75.79
66312;HTU21D;53114;51.138;6.008;2022-08-18T13:54:29;27.72;76.63
66312;HTU21D;53114;51.138;6.008;2022-08-18T13:56:56;27.69;76.80
66312;HTU21D;53114;51.138;6.008;2022-08-18T13:59:24;27.65;77.09
66312;HTU21D;53114;51.138;6.008;2022-08-18T14:01:58;27.59;76.15
66312;HTU21D;53114;51.138;6.008;2022-08-18T14:04:24;27.40;75.57
66312;HTU21D;53114;51.138;6.008;2022-08-18T14:06:51;27.22;78.99
66312;HTU21D;53114;51.138;6.008;2022-08-18T14:09:17;27.17;79.03
66312;HTU21D;53114;51.138;6.008;2022-08-18T14:11:43;27.13;79.27
66312;HTU21D;53114;51.138;6.008;2022-08-18T14:14:09;27.11;80.43
66312;HTU21D;53114;51.138;6.008;2022-08-18T14:16:35;27.08;80.47
66312;HTU21D;53114;51.138;6.008;2022-08-18T14:19:01;26.97;80.10
66312;HTU21D;53114;51.138;6.008;2022-08-18T14:21:51;26.87;78.47
66312;HTU21D;53114;51.138;6.008;2022-08-18T14:24:37;26.81;79.67
66312;HTU21D;53114;51.138;6.008;2022-08-18T14:27:34;26.91;79.70
66312;HTU21D;53114;51.138;6.008;2022-08-18T14:30:02;27.13;79.78
66312;HTU21D;53114;51.138;6.008;2022-08-18T14:32:28;27.25;75.76
66312;HTU21D;53114;51.138;6.008;2022-08-18T14:34:56;27.27;77.33
66312;HTU21D;53114;51.138;6.008;2022-08-18T14:37:22;27.35;75.87
66312;HTU21D;53114;51.138;6.008;2022-08-18T14:39:49;27.27;76.82
66312;HTU21D;53114;51.138;6.008;2022-08-18T14:42:16;27.26;75.60
66312;HTU21D;53114;51.138;6.008;2022-08-18T14:44:47;27.24;76.53
66312;HTU21D;53114;51.138;6.008;2022-08-18T14:47:13;27.28;76.52
66312;HTU21D;53114;51.138;6.008;2022-08-18T14:49:39;27.27;76.54
66312;HTU21D;53114;51.138;6.008;2022-08-18T14:52:05;27.20;77.58
66312;HTU21D;53114;51.138;6.008;2022-08-18T14:54:33;27.13;75.88
66312;HTU21D;53114;51.138;6.008;2022-08-18T14:57:00;27.01;79.24
66312;HTU21D;53114;51.138;6.008;2022-08-18T14:59:27;27.02;78.20
66312;HTU21D;53114;51.138;6.008;2022-08-18T15:01:56;27.06;77.62
66312;HTU21D;53114;51.138;6.008;2022-08-18T15:04:22;27.11;76.28
66312;HTU21D;53114;51.138;6.008;2022-08-18T15:06:49;27.19;75.73
66312;HTU21D;53114;51.138;6.008;2022-08-18T15:09:15;27.19;73.88
66312;HTU21D;53114;51.138;6.008;2022-08-18T15:11:41;27.27;75.74
66312;HTU21D;53114;51.138;6.008;2022-08-18T15:14:07;27.39;75.12
66312;HTU21D;53114;51.138;6.008;2022-08-18T15:16:33;27.55;74.69
66312;HTU21D;53114;51.138;6.008;2022-08-18T15:19:00;27.71;73.54
66312;HTU21D;53114;51.138;6.008;2022-08-18T15:21:29;27.83;72.13
66312;HTU21D;53114;51.138;6.008;2022-08-18T15:24:15;27.89;71.32
66312;HTU21D;53114;51.138;6.008;2022-08-18T15:26:59;27.95;71.81
66312;HTU21D;53114;51.138;6.008;2022-08-18T15:29:28;27.96;71.35
66312;HTU21D;53114;51.138;6.008;2022-08-18T15:31:54;27.88;71.61
66312;HTU21D;53114;51.138;6.008;2022-08-18T15:34:19;27.93;71.53
66312;HTU21D;53114;51.138;6.008;2022-08-18T15:36:47;27.96;71.03
66312;HTU21D;53114;51.138;6.008;2022-08-18T15:39:13;27.95;70.67
66312;HTU21D;53114;51.138;6.008;2022-08-18T15:41:42;27.98;70.08
66312;HTU21D;53114;51.138;6.008;2022-08-18T15:44:18;28.02;69.94
66312;HTU21D;53114;51.138;6.008;2022-08-18T15:46:44;27.98;69.81
66312;HTU21D;53114;51.138;6.008;2022-08-18T15:49:10;28.03;69.52
66312;HTU21D;53114;51.138;6.008;2022-08-18T15:51:39;28.05;68.46
66312;HTU21D;53114;51.138;6.008;2022-08-18T15:54:09;28.10;68.65
66312;HTU21D;53114;51.138;6.008;2022-08-18T15:56:36;28.17;68.38
66312;HTU21D;53114;51.138;6.008;2022-08-18T15:59:03;28.24;67.91
66312;HTU21D;53114;51.138;6.008;2022-08-18T16:01:33;28.24;67.39
66312;HTU21D;53114;51.138;6.008;2022-08-18T16:04:06;28.14;66.83
66312;HTU21D;53114;51.138;6.008;2022-08-18T16:06:36;28.03;67.54
66312;HTU21D;53114;51.138;6.008;2022-08-18T16:09:04;27.93;68.23
66312;HTU21D;53114;51.138;6.008;2022-08-18T16:11:30;27.96;69.44
66312;HTU21D;53114;51.138;6.008;2022-08-18T16:13:57;28.08;69.18
66312;HTU21D;53114;51.138;6.008;2022-08-18T16:16:23;28.17;68.81
66312;HTU21D;53114;51.138;6.008;2022-08-18T16:18:50;28.25;67.67
66312;HTU21D;53114;51.138;6.008;2022-08-18T16:21:21;28.33;66.66
66312;HTU21D;53114;51.138;6.008;2022-08-18T16:23:49;28.31;66.31
66312;HTU21D;53114;51.138;6.008;2022-08-18T16:26:17;28.25;66.65
66312;HTU21D;53114;51.138;6.008;2022-08-18T16:28:47;28.27;67.33
66312;HTU21D;53114;51.138;6.008;2022-08-18T16:31:15;28.35;66.65
66312;HTU21D;53114;51.138;6.008;2022-08-18T16:33:42;28.42;66.69
66312;HTU21D;53114;51.138;6.008;2022-08-18T16:36:10;28.47;65.55
66312;HTU21D;53114;51.138;6.008;2022-08-18T16:38:37;28.46;64.79
66312;HTU21D;53114;51.138;6.008;2022-08-18T16:41:09;28.49;63.75
66312;HTU21D;53114;51.138;6.008;2022-08-18T16:43:36;28.52;63.64
66312;HTU21D;53114;51.138;6.008;2022-08-18T16:46:03;28.55;63.22
66312;HTU21D;53114;51.138;6.008;2022-08-18T16:48:33;28.54;63.26
66312;HTU21D;53114;51.138;6.008;2022-08-18T16:50:59;28.58;62.87
66312;HTU21D;53114;51.138;6.008;2022-08-18T16:53:25;28.57;62.02
66312;HTU21D;53114;51.138;6.008;2022-08-18T16:55:51;28.56;61.81
66312;HTU21D;53114;51.138;6.008;2022-08-18T16:58:17;28.60;61.83
66312;HTU21D;53114;51.138;6.008;2022-08-18T17:01:01;28.57;60.74
66312;HTU21D;53114;51.138;6.008;2022-08-18T17:03:46;28.55;60.12
66312;HTU21D;53114;51.138;6.008;2022-08-18T17:06:31;28.50;60.36
66312;HTU21D;53114;51.138;6.008;2022-08-18T17:08:57;28.50;60.28
66312;HTU21D;53114;51.138;6.008;2022-08-18T17:11:25;28.53;59.70
66312;HTU21D;53114;51.138;6.008;2022-08-18T17:13:57;28.56;59.10
66312;HTU21D;53114;51.138;6.008;2022-08-18T17:16:25;28.61;58.72
66312;HTU21D;53114;51.138;6.008;2022-08-18T17:18:53;28.60;58.51
66312;HTU21D;53114;51.138;6.008;2022-08-18T17:21:22;28.54;58.21
66312;HTU21D;53114;51.138;6.008;2022-08-18T17:23:49;28.47;57.83
66312;HTU21D;53114;51.138;6.008;2022-08-18T17:29:15;28.31;59.57
66312;HTU21D;53114;51.138;6.008;2022-08-18T17:31:52;28.25;59.37
66312;HTU21D;53114;51.138;6.008;2022-08-18T17:34:35;28.18;59.75
66312;HTU21D;53114;51.138;6.008;2022-08-18T17:37:06;28.12;59.38
66312;HTU21D;53114;51.138;6.008;2022-08-18T17:39:38;28.04;59.42
66312;HTU21D;53114;51.138;6.008;2022-08-18T17:42:06;28.02;59.54
66312;HTU21D;53114;51.138;6.008;2022-08-18T17:44:55;28.00;59.48
66312;HTU21D;53114;51.138;6.008;2022-08-18T17:47:50;27.98;59.35
66312;HTU21D;53114;51.138;6.008;2022-08-18T17:50:37;27.90;59.21
66312;HTU21D;53114;51.138;6.008;2022-08-18T17:53:23;27.81;59.14
66312;HTU21D;53114;51.138;6.008;2022-08-18T17:55:55;27.72;60.35
66312;HTU21D;53114;51.138;6.008;2022-08-18T18:01:04;27.52;60.57
66312;HTU21D;53114;51.138;6.008;2022-08-18T18:03:30;27.39;61.43
66312;HTU21D;53114;51.138;6.008;2022-08-18T18:06:10;27.27;61.44
66312;HTU21D;53114;51.138;6.008;2022-08-18T18:08:58;27.16;61.52
66312;HTU21D;53114;51.138;6.008;2022-08-18T18:11:31;27.08;63.51
66312;HTU21D;53114;51.138;6.008;2022-08-18T18:17:05;26.86;66.11
66312;HTU21D;53114;51.138;6.008;2022-08-18T18:19:32;26.78;65.33
66312;HTU21D;53114;51.138;6.008;2022-08-18T18:22:05;26.67;64.87
66312;HTU21D;53114;51.138;6.008;2022-08-18T18:24:36;26.58;65.35
66312;HTU21D;53114;51.138;6.008;2022-08-18T18:30:06;26.45;67.01
66312;HTU21D;53114;51.138;6.008;2022-08-18T18:32:35;26.39;67.05
66312;HTU21D;53114;51.138;6.008;2022-08-18T18:35:20;26.27;67.75
66312;HTU21D;53114;51.138;6.008;2022-08-18T18:38:00;26.15;70.32
66312;HTU21D;53114;51.138;6.008;2022-08-18T18:40:29;25.96;72.42
66312;HTU21D;53114;51.138;6.008;2022-08-18T18:42:57;25.77;74.64
66312;HTU21D;53114;51.138;6.008;2022-08-18T18:45:57;25.50;78.95